sensor_id;sensor_type;location;lat;lon;timestamp;P1;durP1;ratioP1;P2;durP2;ratioP2
56255;SDS011;57229;51.432;-2.598;2023-08-17T00:02:16;6.57;;;5.00;;
56255;SDS011;57229;51.432;-2.598;2023-08-17T00:04:41;6.18;;;5.32;;
56255;SDS011;57229;51.432;-2.598;2023-08-17T00:07:07;9.98;;;5.00;;
56255;SDS011;57229;51.432;-2.598;2023-08-17T00:09:33;6.53;;;5.40;;
56255;SDS011;57229;51.432;-2.598;2023-08-17T00:11:59;10.90;;;5.03;;
56255;SDS011;57229;51.432;-2.598;2023-08-17T00:14:24;7.40;;;5.30;;
56255;SDS011;57229;51.432;-2.598;2023-08-17T00:16:50;8.23;;;5.03;;
56255;SDS011;57229;51.432;-2.598;2023-08-17T00:19:16;5.82;;;5.30;;
56255;SDS011;57229;51.432;-2.598;2023-08-17T00:21:42;5.85;;;5.00;;
56255;SDS011;57229;51.432;-2.598;2023-08-17T00:24:08;7.20;;;5.28;;
56255;SDS011;57229;51.432;-2.598;2023-08-17T00:26:34;8.38;;;5.18;;
56255;SDS011;57229;51.432;-2.598;2023-08-17T00:29:00;7.07;;;5.05;;
56255;SDS011;57229;51.432;-2.598;2023-08-17T00:31:25;5.63;;;5.10;;
56255;SDS011;57229;51.432;-2.598;2023-08-17T00:33:54;7.28;;;5.50;;
56255;SDS011;57229;51.432;-2.598;2023-08-17T00:36:22;9.88;;;5.03;;
56255;SDS011;57229;51.432;-2.598;2023-08-17T00:38:48;7.22;;;5.40;;
56255;SDS011;57229;51.432;-2.598;2023-08-17T00:41:14;7.30;;;5.13;;
56255;SDS011;57229;51.432;-2.598;2023-08-17T00:43:39;6.03;;;5.35;;
56255;SDS011;57229;51.432;-2.598;2023-08-17T00:46:05;9.05;;;5.82;;
56255;SDS011;57229;51.432;-2.598;2023-08-17T00:48:31;7.07;;;5.80;;
56255;SDS011;57229;51.432;-2.598;2023-08-17T00:51:00;6.45;;;5.40;;
56255;SDS011;57229;51.432;-2.598;2023-08-17T00:53:27;11.25;;;5.50;;
56255;SDS011;57229;51.432;-2.598;2023-08-17T00:55:56;7.18;;;5.60;;
56255;SDS011;57229;51.432;-2.598;2023-08-17T00:58:28;6.82;;;5.43;;
56255;SDS011;57229;51.432;-2.598;2023-08-17T01:00:55;10.85;;;5.53;;
56255;SDS011;57229;51.432;-2.598;2023-08-17T01:03:21;8.80;;;5.20;;
56255;SDS011;57229;51.432;-2.598;2023-08-17T01:05:51;6.72;;;5.43;;
56255;SDS011;57229;51.432;-2.598;2023-08-17T01:08:16;9.05;;;5.63;;
56255;SDS011;57229;51.432;-2.598;2023-08-17T01:10:47;6.20;;;5.47;;
56255;SDS011;57229;51.432;-2.598;2023-08-17T01:13:47;8.63;;;5.85;;
56255;SDS011;57229;51.432;-2.598;2023-08-17T01:16:24;5.97;;;5.13;;
56255;SDS011;57229;51.432;-2.598;2023-08-17T01:18:57;6.53;;;5.45;;
56255;SDS011;57229;51.432;-2.598;2023-08-17T01:21:24;6.20;;;5.15;;
56255;SDS011;57229;51.432;-2.598;2023-08-17T01:24:20;9.50;;;5.40;;
56255;SDS011;57229;51.432;-2.598;2023-08-17T01:26:46;9.57;;;5.63;;
56255;SDS011;57229;51.432;-2.598;2023-08-17T01:29:11;7.97;;;5.38;;
56255;SDS011;57229;51.432;-2.598;2023-08-17T01:31:43;7.88;;;5.57;;
56255;SDS011;57229;51.432;-2.598;2023-08-17T01:34:18;8.07;;;5.43;;
56255;SDS011;57229;51.432;-2.598;2023-08-17T01:36:56;6.60;;;5.32;;
56255;SDS011;57229;51.432;-2.598;2023-08-17T01:39:29;7.40;;;5.47;;
56255;SDS011;57229;51.432;-2.598;2023-08-17T01:42:01;9.18;;;5.50;;
56255;SDS011;57229;51.432;-2.598;2023-08-17T01:44:30;7.07;;;5.80;;
56255;SDS011;57229;51.432;-2.598;2023-08-17T01:46:55;9.32;;;5.72;;
56255;SDS011;57229;51.432;-2.598;2023-08-17T01:49:21;11.88;;;6.53;;
56255;SDS011;57229;51.432;-2.598;2023-08-17T01:51:47;10.85;;;6.28;;
56255;SDS011;57229;51.432;-2.598;2023-08-17T01:54:12;9.10;;;6.50;;
56255;SDS011;57229;51.432;-2.598;2023-08-17T01:56:38;10.98;;;6.28;;
56255;SDS011;57229;51.432;-2.598;2023-08-17T01:59:03;7.80;;;6.22;;
56255;SDS011;57229;51.432;-2.598;2023-08-17T02:01:29;8.05;;;6.18;;
56255;SDS011;57229;51.432;-2.598;2023-08-17T02:03:55;7.72;;;5.72;;
56255;SDS011;57229;51.432;-2.598;2023-08-17T02:06:20;8.10;;;6.45;;
56255;SDS011;57229;51.432;-2.598;2023-08-17T02:08:46;6.63;;;5.93;;
56255;SDS011;57229;51.432;-2.598;2023-08-17T02:11:11;9.43;;;6.00;;
56255;SDS011;57229;51.432;-2.598;2023-08-17T02:13:37;14.98;;;6.47;;
56255;SDS011;57229;51.432;-2.598;2023-08-17T02:16:03;10.32;;;6.25;;
56255;SDS011;57229;51.432;-2.598;2023-08-17T02:18:29;12.00;;;5.70;;
56255;SDS011;57229;51.432;-2.598;2023-08-17T02:20:57;9.90;;;6.07;;
56255;SDS011;57229;51.432;-2.598;2023-08-17T02:23:22;13.07;;;6.22;;
56255;SDS011;57229;51.432;-2.598;2023-08-17T02:25:48;10.43;;;6.22;;
56255;SDS011;57229;51.432;-2.598;2023-08-17T02:28:14;6.43;;;5.78;;
56255;SDS011;57229;51.432;-2.598;2023-08-17T02:30:39;8.57;;;6.13;;
56255;SDS011;57229;51.432;-2.598;2023-08-17T02:33:05;10.00;;;6.55;;
56255;SDS011;57229;51.432;-2.598;2023-08-17T02:35:30;10.38;;;6.63;;
56255;SDS011;57229;51.432;-2.598;2023-08-17T02:37:56;9.85;;;6.10;;
56255;SDS011;57229;51.432;-2.598;2023-08-17T02:40:22;8.98;;;6.13;;
56255;SDS011;57229;51.432;-2.598;2023-08-17T02:42:47;7.28;;;5.95;;
56255;SDS011;57229;51.432;-2.598;2023-08-17T02:45:13;10.20;;;6.28;;
56255;SDS011;57229;51.432;-2.598;2023-08-17T02:47:38;6.20;;;5.60;;
56255;SDS011;57229;51.432;-2.598;2023-08-17T02:50:04;8.30;;;6.25;;
56255;SDS011;57229;51.432;-2.598;2023-08-17T02:52:30;7.50;;;6.25;;
56255;SDS011;57229;51.432;-2.598;2023-08-17T02:54:56;9.25;;;6.32;;
56255;SDS011;57229;51.432;-2.598;2023-08-17T02:57:21;9.18;;;6.43;;
56255;SDS011;57229;51.432;-2.598;2023-08-17T02:59:47;8.30;;;6.38;;
56255;SDS011;57229;51.432;-2.598;2023-08-17T03:02:13;8.95;;;6.40;;
56255;SDS011;57229;51.432;-2.598;2023-08-17T03:04:38;8.10;;;6.78;;
56255;SDS011;57229;51.432;-2.598;2023-08-17T03:07:04;8.88;;;6.28;;
56255;SDS011;57229;51.432;-2.598;2023-08-17T03:09:29;9.63;;;6.20;;
56255;SDS011;57229;51.432;-2.598;2023-08-17T03:11:55;12.48;;;6.20;;
56255;SDS011;57229;51.432;-2.598;2023-08-17T03:14:20;11.15;;;6.00;;
56255;SDS011;57229;51.432;-2.598;2023-08-17T03:16:46;8.48;;;6.47;;
56255;SDS011;57229;51.432;-2.598;2023-08-17T03:19:12;8.75;;;6.30;;
56255;SDS011;57229;51.432;-2.598;2023-08-17T03:21:37;10.90;;;6.60;;
56255;SDS011;57229;51.432;-2.598;2023-08-17T03:24:04;7.25;;;6.60;;
56255;SDS011;57229;51.432;-2.598;2023-08-17T03:26:30;7.10;;;6.40;;
56255;SDS011;57229;51.432;-2.598;2023-08-17T03:28:56;7.30;;;6.03;;
56255;SDS011;57229;51.432;-2.598;2023-08-17T03:31:21;10.50;;;6.57;;
56255;SDS011;57229;51.432;-2.598;2023-08-17T03:33:47;7.57;;;6.20;;
56255;SDS011;57229;51.432;-2.598;2023-08-17T03:36:13;8.57;;;6.47;;
56255;SDS011;57229;51.432;-2.598;2023-08-17T03:38:39;8.35;;;6.22;;
56255;SDS011;57229;51.432;-2.598;2023-08-17T03:41:05;7.15;;;6.20;;
56255;SDS011;57229;51.432;-2.598;2023-08-17T03:43:31;11.13;;;6.35;;
56255;SDS011;57229;51.432;-2.598;2023-08-17T03:45:57;8.02;;;6.22;;
56255;SDS011;57229;51.432;-2.598;2023-08-17T03:48:22;14.50;;;6.85;;
56255;SDS011;57229;51.432;-2.598;2023-08-17T03:50:54;7.75;;;6.35;;
56255;SDS011;57229;51.432;-2.598;2023-08-17T03:53:20;11.02;;;6.47;;
56255;SDS011;57229;51.432;-2.598;2023-08-17T03:55:49;9.02;;;6.30;;
56255;SDS011;57229;51.432;-2.598;2023-08-17T03:58:16;7.68;;;5.95;;
56255;SDS011;57229;51.432;-2.598;2023-08-17T04:00:48;7.10;;;6.25;;
56255;SDS011;57229;51.432;-2.598;2023-08-17T04:03:17;9.52;;;6.70;;
56255;SDS011;57229;51.432;-2.598;2023-08-17T04:05:43;7.32;;;6.63;;
56255;SDS011;57229;51.432;-2.598;2023-08-17T04:08:09;8.75;;;6.78;;
56255;SDS011;57229;51.432;-2.598;2023-08-17T04:10:35;9.82;;;7.07;;
56255;SDS011;57229;51.432;-2.598;2023-08-17T04:13:00;11.70;;;6.57;;
56255;SDS011;57229;51.432;-2.598;2023-08-17T04:15:26;9.98;;;6.85;;
56255;SDS011;57229;51.432;-2.598;2023-08-17T04:17:52;9.65;;;6.70;;
56255;SDS011;57229;51.432;-2.598;2023-08-17T04:20:17;7.88;;;6.90;;
56255;SDS011;57229;51.432;-2.598;2023-08-17T04:22:43;8.98;;;6.95;;
56255;SDS011;57229;51.432;-2.598;2023-08-17T04:25:09;10.55;;;6.97;;
56255;SDS011;57229;51.432;-2.598;2023-08-17T04:27:35;7.68;;;6.88;;
56255;SDS011;57229;51.432;-2.598;2023-08-17T04:30:01;9.88;;;6.60;;
56255;SDS011;57229;51.432;-2.598;2023-08-17T04:32:26;8.95;;;6.85;;
56255;SDS011;57229;51.432;-2.598;2023-08-17T04:34:52;11.13;;;7.28;;
56255;SDS011;57229;51.432;-2.598;2023-08-17T04:37:18;7.50;;;6.75;;
56255;SDS011;57229;51.432;-2.598;2023-08-17T04:39:43;8.25;;;6.88;;
56255;SDS011;57229;51.432;-2.598;2023-08-17T04:42:09;9.32;;;6.68;;
56255;SDS011;57229;51.432;-2.598;2023-08-17T04:44:35;10.38;;;7.15;;
56255;SDS011;57229;51.432;-2.598;2023-08-17T04:47:01;9.82;;;8.43;;
56255;SDS011;57229;51.432;-2.598;2023-08-17T04:49:27;9.80;;;7.65;;
56255;SDS011;57229;51.432;-2.598;2023-08-17T04:51:53;10.38;;;8.55;;
56255;SDS011;57229;51.432;-2.598;2023-08-17T04:54:18;12.98;;;8.55;;
56255;SDS011;57229;51.432;-2.598;2023-08-17T04:56:44;15.05;;;7.78;;
56255;SDS011;57229;51.432;-2.598;2023-08-17T04:59:10;14.20;;;9.10;;
56255;SDS011;57229;51.432;-2.598;2023-08-17T05:01:35;24.88;;;10.40;;
56255;SDS011;57229;51.432;-2.598;2023-08-17T05:04:02;17.77;;;12.02;;
56255;SDS011;57229;51.432;-2.598;2023-08-17T05:06:28;18.05;;;11.52;;
56255;SDS011;57229;51.432;-2.598;2023-08-17T05:08:54;13.32;;;10.95;;
56255;SDS011;57229;51.432;-2.598;2023-08-17T05:11:20;18.95;;;10.95;;
56255;SDS011;57229;51.432;-2.598;2023-08-17T05:13:45;13.80;;;9.35;;
56255;SDS011;57229;51.432;-2.598;2023-08-17T05:16:11;14.57;;;10.45;;
56255;SDS011;57229;51.432;-2.598;2023-08-17T05:18:36;12.50;;;9.98;;
56255;SDS011;57229;51.432;-2.598;2023-08-17T05:21:02;17.50;;;9.52;;
56255;SDS011;57229;51.432;-2.598;2023-08-17T05:23:28;17.20;;;11.20;;
56255;SDS011;57229;51.432;-2.598;2023-08-17T05:25:53;15.65;;;12.02;;
56255;SDS011;57229;51.432;-2.598;2023-08-17T05:28:19;22.38;;;14.40;;
56255;SDS011;57229;51.432;-2.598;2023-08-17T05:30:45;22.50;;;13.18;;
56255;SDS011;57229;51.432;-2.598;2023-08-17T05:33:11;19.42;;;12.65;;
56255;SDS011;57229;51.432;-2.598;2023-08-17T05:35:37;26.75;;;16.40;;
56255;SDS011;57229;51.432;-2.598;2023-08-17T05:38:03;30.58;;;17.08;;
56255;SDS011;57229;51.432;-2.598;2023-08-17T05:40:29;31.25;;;18.73;;
56255;SDS011;57229;51.432;-2.598;2023-08-17T05:42:55;33.75;;;17.80;;
56255;SDS011;57229;51.432;-2.598;2023-08-17T05:45:21;33.20;;;19.42;;
56255;SDS011;57229;51.432;-2.598;2023-08-17T05:47:47;41.80;;;22.13;;
56255;SDS011;57229;51.432;-2.598;2023-08-17T05:50:12;35.20;;;20.90;;
56255;SDS011;57229;51.432;-2.598;2023-08-17T05:52:38;42.45;;;21.35;;
56255;SDS011;57229;51.432;-2.598;2023-08-17T05:55:05;41.03;;;21.52;;
56255;SDS011;57229;51.432;-2.598;2023-08-17T05:57:31;44.15;;;24.45;;
56255;SDS011;57229;51.432;-2.598;2023-08-17T05:59:56;47.85;;;24.25;;
56255;SDS011;57229;51.432;-2.598;2023-08-17T06:02:22;45.70;;;24.42;;
56255;SDS011;57229;51.432;-2.598;2023-08-17T06:04:47;46.90;;;24.55;;
56255;SDS011;57229;51.432;-2.598;2023-08-17T06:07:13;47.78;;;24.33;;
56255;SDS011;57229;51.432;-2.598;2023-08-17T06:09:39;46.53;;;23.92;;
56255;SDS011;57229;51.432;-2.598;2023-08-17T06:12:04;49.17;;;25.60;;
56255;SDS011;57229;51.432;-2.598;2023-08-17T06:14:31;49.40;;;25.70;;
56255;SDS011;57229;51.432;-2.598;2023-08-17T06:16:57;49.63;;;25.30;;
56255;SDS011;57229;51.432;-2.598;2023-08-17T06:19:23;48.55;;;25.50;;
56255;SDS011;57229;51.432;-2.598;2023-08-17T06:21:49;49.15;;;25.10;;
56255;SDS011;57229;51.432;-2.598;2023-08-17T06:24:14;44.45;;;23.80;;
56255;SDS011;57229;51.432;-2.598;2023-08-17T06:26:40;41.40;;;22.83;;
56255;SDS011;57229;51.432;-2.598;2023-08-17T06:29:06;41.67;;;23.83;;
56255;SDS011;57229;51.432;-2.598;2023-08-17T06:31:32;39.72;;;23.05;;
56255;SDS011;57229;51.432;-2.598;2023-08-17T06:33:58;47.72;;;23.73;;
56255;SDS011;57229;51.432;-2.598;2023-08-17T06:36:24;50.97;;;23.65;;
56255;SDS011;57229;51.432;-2.598;2023-08-17T06:38:49;41.08;;;23.98;;
56255;SDS011;57229;51.432;-2.598;2023-08-17T06:41:15;37.35;;;21.83;;
56255;SDS011;57229;51.432;-2.598;2023-08-17T06:43:42;40.65;;;22.75;;
56255;SDS011;57229;51.432;-2.598;2023-08-17T06:46:07;39.53;;;21.23;;
56255;SDS011;57229;51.432;-2.598;2023-08-17T06:48:33;38.70;;;22.58;;
56255;SDS011;57229;51.432;-2.598;2023-08-17T06:50:58;40.25;;;21.70;;
56255;SDS011;57229;51.432;-2.598;2023-08-17T06:53:24;34.20;;;20.80;;
56255;SDS011;57229;51.432;-2.598;2023-08-17T06:55:50;35.25;;;20.58;;
56255;SDS011;57229;51.432;-2.598;2023-08-17T06:58:15;38.42;;;20.50;;
56255;SDS011;57229;51.432;-2.598;2023-08-17T07:00:41;35.03;;;21.27;;
56255;SDS011;57229;51.432;-2.598;2023-08-17T07:03:08;36.67;;;21.30;;
56255;SDS011;57229;51.432;-2.598;2023-08-17T07:05:34;39.63;;;20.77;;
56255;SDS011;57229;51.432;-2.598;2023-08-17T07:08:00;35.90;;;20.75;;
56255;SDS011;57229;51.432;-2.598;2023-08-17T07:10:26;29.95;;;19.45;;
56255;SDS011;57229;51.432;-2.598;2023-08-17T07:12:52;29.30;;;19.42;;
56255;SDS011;57229;51.432;-2.598;2023-08-17T07:15:18;32.63;;;20.00;;
56255;SDS011;57229;51.432;-2.598;2023-08-17T07:17:44;32.97;;;19.10;;
56255;SDS011;57229;51.432;-2.598;2023-08-17T07:20:09;34.03;;;19.30;;
56255;SDS011;57229;51.432;-2.598;2023-08-17T07:22:36;28.55;;;18.55;;
56255;SDS011;57229;51.432;-2.598;2023-08-17T07:25:02;28.17;;;18.17;;
56255;SDS011;57229;51.432;-2.598;2023-08-17T07:27:28;29.13;;;19.05;;
56255;SDS011;57229;51.432;-2.598;2023-08-17T07:29:54;26.55;;;17.63;;
56255;SDS011;57229;51.432;-2.598;2023-08-17T07:32:20;24.90;;;17.67;;
56255;SDS011;57229;51.432;-2.598;2023-08-17T07:34:46;26.83;;;17.35;;
56255;SDS011;57229;51.432;-2.598;2023-08-17T07:37:12;25.15;;;17.80;;
56255;SDS011;57229;51.432;-2.598;2023-08-17T07:39:38;24.10;;;17.08;;
56255;SDS011;57229;51.432;-2.598;2023-08-17T07:42:03;23.83;;;16.60;;
56255;SDS011;57229;51.432;-2.598;2023-08-17T07:44:29;27.55;;;16.15;;
56255;SDS011;57229;51.432;-2.598;2023-08-17T07:46:56;23.00;;;16.67;;
56255;SDS011;57229;51.432;-2.598;2023-08-17T07:49:24;23.02;;;15.40;;
56255;SDS011;57229;51.432;-2.598;2023-08-17T07:51:50;19.77;;;15.40;;
56255;SDS011;57229;51.432;-2.598;2023-08-17T07:54:15;21.85;;;15.63;;
56255;SDS011;57229;51.432;-2.598;2023-08-17T07:56:41;22.80;;;15.85;;
56255;SDS011;57229;51.432;-2.598;2023-08-17T07:59:06;21.42;;;15.25;;
56255;SDS011;57229;51.432;-2.598;2023-08-17T08:01:33;22.67;;;14.30;;
56255;SDS011;57229;51.432;-2.598;2023-08-17T08:03:59;21.98;;;14.15;;
56255;SDS011;57229;51.432;-2.598;2023-08-17T08:06:24;21.58;;;14.85;;
56255;SDS011;57229;51.432;-2.598;2023-08-17T08:08:50;24.00;;;14.77;;
56255;SDS011;57229;51.432;-2.598;2023-08-17T08:11:15;22.38;;;14.95;;
56255;SDS011;57229;51.432;-2.598;2023-08-17T08:13:41;19.08;;;14.45;;
56255;SDS011;57229;51.432;-2.598;2023-08-17T08:16:07;21.73;;;14.85;;
56255;SDS011;57229;51.432;-2.598;2023-08-17T08:18:32;20.17;;;14.45;;
56255;SDS011;57229;51.432;-2.598;2023-08-17T08:20:58;21.98;;;14.50;;
56255;SDS011;57229;51.432;-2.598;2023-08-17T08:23:24;20.08;;;13.82;;
56255;SDS011;57229;51.432;-2.598;2023-08-17T08:25:51;24.23;;;14.57;;
56255;SDS011;57229;51.432;-2.598;2023-08-17T08:28:16;17.77;;;13.45;;
56255;SDS011;57229;51.432;-2.598;2023-08-17T08:30:42;18.83;;;13.98;;
56255;SDS011;57229;51.432;-2.598;2023-08-17T08:33:08;17.45;;;13.68;;
56255;SDS011;57229;51.432;-2.598;2023-08-17T08:35:33;17.02;;;12.98;;
56255;SDS011;57229;51.432;-2.598;2023-08-17T08:37:59;19.08;;;12.85;;
56255;SDS011;57229;51.432;-2.598;2023-08-17T08:40:26;20.45;;;12.80;;
56255;SDS011;57229;51.432;-2.598;2023-08-17T08:42:53;18.35;;;12.02;;
56255;SDS011;57229;51.432;-2.598;2023-08-17T08:45:19;16.73;;;12.52;;
56255;SDS011;57229;51.432;-2.598;2023-08-17T08:47:47;16.60;;;12.85;;
56255;SDS011;57229;51.432;-2.598;2023-08-17T08:50:15;18.30;;;11.82;;
56255;SDS011;57229;51.432;-2.598;2023-08-17T08:52:49;13.80;;;12.30;;
56255;SDS011;57229;51.432;-2.598;2023-08-17T08:55:23;16.25;;;12.20;;
56255;SDS011;57229;51.432;-2.598;2023-08-17T08:57:51;15.05;;;11.50;;
56255;SDS011;57229;51.432;-2.598;2023-08-17T09:00:18;17.60;;;11.68;;
56255;SDS011;57229;51.432;-2.598;2023-08-17T09:02:45;16.60;;;12.57;;
56255;SDS011;57229;51.432;-2.598;2023-08-17T09:05:10;20.02;;;13.35;;
56255;SDS011;57229;51.432;-2.598;2023-08-17T09:07:38;21.92;;;12.40;;
56255;SDS011;57229;51.432;-2.598;2023-08-17T09:10:04;16.15;;;11.98;;
56255;SDS011;57229;51.432;-2.598;2023-08-17T09:12:30;16.70;;;12.43;;
56255;SDS011;57229;51.432;-2.598;2023-08-17T09:14:56;18.30;;;12.45;;
56255;SDS011;57229;51.432;-2.598;2023-08-17T09:17:23;15.48;;;12.52;;
56255;SDS011;57229;51.432;-2.598;2023-08-17T09:19:49;16.45;;;12.43;;
56255;SDS011;57229;51.432;-2.598;2023-08-17T09:22:22;18.83;;;12.55;;
56255;SDS011;57229;51.432;-2.598;2023-08-17T09:24:49;14.68;;;12.82;;
56255;SDS011;57229;51.432;-2.598;2023-08-17T09:27:14;17.48;;;11.25;;
56255;SDS011;57229;51.432;-2.598;2023-08-17T09:29:42;14.85;;;10.68;;
56255;SDS011;57229;51.432;-2.598;2023-08-17T09:32:10;16.48;;;11.38;;
56255;SDS011;57229;51.432;-2.598;2023-08-17T09:34:40;17.50;;;11.27;;
56255;SDS011;57229;51.432;-2.598;2023-08-17T09:37:06;15.73;;;11.38;;
56255;SDS011;57229;51.432;-2.598;2023-08-17T09:39:32;12.88;;;10.93;;
56255;SDS011;57229;51.432;-2.598;2023-08-17T09:41:59;12.98;;;10.07;;
56255;SDS011;57229;51.432;-2.598;2023-08-17T09:44:25;12.60;;;10.18;;
56255;SDS011;57229;51.432;-2.598;2023-08-17T09:46:51;12.85;;;9.93;;
56255;SDS011;57229;51.432;-2.598;2023-08-17T09:49:19;12.73;;;8.77;;
56255;SDS011;57229;51.432;-2.598;2023-08-17T09:51:47;13.40;;;8.85;;
56255;SDS011;57229;51.432;-2.598;2023-08-17T09:54:20;11.32;;;9.30;;
56255;SDS011;57229;51.432;-2.598;2023-08-17T09:56:48;11.45;;;8.90;;
56255;SDS011;57229;51.432;-2.598;2023-08-17T09:59:17;12.00;;;9.35;;
56255;SDS011;57229;51.432;-2.598;2023-08-17T10:01:43;11.93;;;8.48;;
56255;SDS011;57229;51.432;-2.598;2023-08-17T10:04:12;9.95;;;8.88;;
56255;SDS011;57229;51.432;-2.598;2023-08-17T10:06:39;11.38;;;8.93;;
56255;SDS011;57229;51.432;-2.598;2023-08-17T10:09:06;10.75;;;9.20;;
56255;SDS011;57229;51.432;-2.598;2023-08-17T10:11:36;15.23;;;9.50;;
56255;SDS011;57229;51.432;-2.598;2023-08-17T10:14:05;12.88;;;10.23;;
56255;SDS011;57229;51.432;-2.598;2023-08-17T10:16:44;10.60;;;9.02;;
56255;SDS011;57229;51.432;-2.598;2023-08-17T10:24:37;14.18;;;9.38;;
56255;SDS011;57229;51.432;-2.598;2023-08-17T10:27:04;13.35;;;9.35;;
56255;SDS011;57229;51.432;-2.598;2023-08-17T10:29:31;11.63;;;8.90;;
56255;SDS011;57229;51.432;-2.598;2023-08-17T10:31:59;11.77;;;9.55;;
56255;SDS011;57229;51.432;-2.598;2023-08-17T10:34:26;11.52;;;10.07;;
56255;SDS011;57229;51.432;-2.598;2023-08-17T10:36:53;15.57;;;9.68;;
56255;SDS011;57229;51.432;-2.598;2023-08-17T10:39:23;17.42;;;9.65;;
56255;SDS011;57229;51.432;-2.598;2023-08-17T10:41:53;11.35;;;9.40;;
56255;SDS011;57229;51.432;-2.598;2023-08-17T10:44:37;9.70;;;8.70;;
56255;SDS011;57229;51.432;-2.598;2023-08-17T10:47:22;12.80;;;8.90;;
56255;SDS011;57229;51.432;-2.598;2023-08-17T10:49:56;13.73;;;9.43;;
56255;SDS011;57229;51.432;-2.598;2023-08-17T10:52:35;12.25;;;9.93;;
56255;SDS011;57229;51.432;-2.598;2023-08-17T10:55:06;12.13;;;9.15;;
56255;SDS011;57229;51.432;-2.598;2023-08-17T10:57:39;12.43;;;9.85;;
56255;SDS011;57229;51.432;-2.598;2023-08-17T11:00:06;12.77;;;9.73;;
56255;SDS011;57229;51.432;-2.598;2023-08-17T11:02:33;14.68;;;10.65;;
56255;SDS011;57229;51.432;-2.598;2023-08-17T11:05:00;15.10;;;10.80;;
56255;SDS011;57229;51.432;-2.598;2023-08-17T11:07:26;12.23;;;10.00;;
56255;SDS011;57229;51.432;-2.598;2023-08-17T11:09:53;12.98;;;9.35;;
56255;SDS011;57229;51.432;-2.598;2023-08-17T11:12:25;13.32;;;9.60;;
56255;SDS011;57229;51.432;-2.598;2023-08-17T11:14:52;11.75;;;8.52;;
56255;SDS011;57229;51.432;-2.598;2023-08-17T11:17:20;11.25;;;8.80;;
56255;SDS011;57229;51.432;-2.598;2023-08-17T11:19:46;9.43;;;7.88;;
56255;SDS011;57229;51.432;-2.598;2023-08-17T11:22:12;12.88;;;7.63;;
56255;SDS011;57229;51.432;-2.598;2023-08-17T11:24:37;11.25;;;7.15;;
56255;SDS011;57229;51.432;-2.598;2023-08-17T11:27:05;9.90;;;6.85;;
56255;SDS011;57229;51.432;-2.598;2023-08-17T11:29:31;7.63;;;6.93;;
56255;SDS011;57229;51.432;-2.598;2023-08-17T11:31:58;8.65;;;7.50;;
56255;SDS011;57229;51.432;-2.598;2023-08-17T11:34:23;10.02;;;7.28;;
56255;SDS011;57229;51.432;-2.598;2023-08-17T11:36:49;7.65;;;6.90;;
56255;SDS011;57229;51.432;-2.598;2023-08-17T11:39:15;12.25;;;7.55;;
56255;SDS011;57229;51.432;-2.598;2023-08-17T11:41:40;8.65;;;6.70;;
56255;SDS011;57229;51.432;-2.598;2023-08-17T11:44:06;9.88;;;6.43;;
56255;SDS011;57229;51.432;-2.598;2023-08-17T11:46:32;9.23;;;7.00;;
56255;SDS011;57229;51.432;-2.598;2023-08-17T11:49:00;11.82;;;7.05;;
56255;SDS011;57229;51.432;-2.598;2023-08-17T11:51:29;8.10;;;6.93;;
56255;SDS011;57229;51.432;-2.598;2023-08-17T11:53:59;8.38;;;7.00;;
56255;SDS011;57229;51.432;-2.598;2023-08-17T11:56:25;8.88;;;7.07;;
56255;SDS011;57229;51.432;-2.598;2023-08-17T11:58:51;11.43;;;7.43;;
56255;SDS011;57229;51.432;-2.598;2023-08-17T12:01:17;12.35;;;7.00;;
56255;SDS011;57229;51.432;-2.598;2023-08-17T12:03:42;8.18;;;6.30;;
56255;SDS011;57229;51.432;-2.598;2023-08-17T12:06:08;7.32;;;6.32;;
56255;SDS011;57229;51.432;-2.598;2023-08-17T12:08:34;10.65;;;6.45;;
56255;SDS011;57229;51.432;-2.598;2023-08-17T12:11:00;6.38;;;5.72;;
56255;SDS011;57229;51.432;-2.598;2023-08-17T12:13:32;6.80;;;6.15;;
56255;SDS011;57229;51.432;-2.598;2023-08-17T12:15:58;6.60;;;5.90;;
56255;SDS011;57229;51.432;-2.598;2023-08-17T12:18:24;7.80;;;6.13;;
56255;SDS011;57229;51.432;-2.598;2023-08-17T12:20:53;8.43;;;6.05;;
56255;SDS011;57229;51.432;-2.598;2023-08-17T12:23:20;9.70;;;5.90;;
56255;SDS011;57229;51.432;-2.598;2023-08-17T12:25:45;7.20;;;5.55;;
56255;SDS011;57229;51.432;-2.598;2023-08-17T12:28:16;7.20;;;5.53;;
56255;SDS011;57229;51.432;-2.598;2023-08-17T12:30:42;11.40;;;5.70;;
56255;SDS011;57229;51.432;-2.598;2023-08-17T12:33:08;7.28;;;6.03;;
56255;SDS011;57229;51.432;-2.598;2023-08-17T12:35:34;9.30;;;5.78;;
56255;SDS011;57229;51.432;-2.598;2023-08-17T12:37:59;6.25;;;5.70;;
56255;SDS011;57229;51.432;-2.598;2023-08-17T12:40:25;6.80;;;5.40;;
56255;SDS011;57229;51.432;-2.598;2023-08-17T12:42:51;6.38;;;5.78;;
56255;SDS011;57229;51.432;-2.598;2023-08-17T12:45:16;8.20;;;6.15;;
56255;SDS011;57229;51.432;-2.598;2023-08-17T12:47:42;8.70;;;6.30;;
56255;SDS011;57229;51.432;-2.598;2023-08-17T12:50:08;9.18;;;5.90;;
56255;SDS011;57229;51.432;-2.598;2023-08-17T12:52:34;8.93;;;5.75;;
56255;SDS011;57229;51.432;-2.598;2023-08-17T12:55:00;8.10;;;6.00;;
56255;SDS011;57229;51.432;-2.598;2023-08-17T12:57:25;8.30;;;6.15;;
56255;SDS011;57229;51.432;-2.598;2023-08-17T12:59:51;9.35;;;6.20;;
56255;SDS011;57229;51.432;-2.598;2023-08-17T13:02:17;12.38;;;6.85;;
56255;SDS011;57229;51.432;-2.598;2023-08-17T13:04:44;16.08;;;6.50;;
56255;SDS011;57229;51.432;-2.598;2023-08-17T13:07:10;11.98;;;7.32;;
56255;SDS011;57229;51.432;-2.598;2023-08-17T13:09:35;8.48;;;6.18;;
56255;SDS011;57229;51.432;-2.598;2023-08-17T13:12:01;10.23;;;6.70;;
56255;SDS011;57229;51.432;-2.598;2023-08-17T13:14:27;7.15;;;6.32;;
56255;SDS011;57229;51.432;-2.598;2023-08-17T13:16:52;17.55;;;6.10;;
56255;SDS011;57229;51.432;-2.598;2023-08-17T13:19:18;13.32;;;6.78;;
56255;SDS011;57229;51.432;-2.598;2023-08-17T13:21:43;6.72;;;6.05;;
56255;SDS011;57229;51.432;-2.598;2023-08-17T13:24:09;8.02;;;6.18;;
56255;SDS011;57229;51.432;-2.598;2023-08-17T13:26:35;6.90;;;6.20;;
56255;SDS011;57229;51.432;-2.598;2023-08-17T13:29:01;10.43;;;5.68;;
56255;SDS011;57229;51.432;-2.598;2023-08-17T13:31:26;12.90;;;6.28;;
56255;SDS011;57229;51.432;-2.598;2023-08-17T13:33:52;8.82;;;6.30;;
56255;SDS011;57229;51.432;-2.598;2023-08-17T13:36:18;8.95;;;6.22;;
56255;SDS011;57229;51.432;-2.598;2023-08-17T13:38:44;6.15;;;5.72;;
56255;SDS011;57229;51.432;-2.598;2023-08-17T13:41:10;11.32;;;5.90;;
56255;SDS011;57229;51.432;-2.598;2023-08-17T13:43:36;7.20;;;6.15;;
56255;SDS011;57229;51.432;-2.598;2023-08-17T13:46:02;10.57;;;5.93;;
56255;SDS011;57229;51.432;-2.598;2023-08-17T13:48:27;7.05;;;5.80;;
56255;SDS011;57229;51.432;-2.598;2023-08-17T13:50:53;7.85;;;5.65;;
56255;SDS011;57229;51.432;-2.598;2023-08-17T13:53:19;8.30;;;5.78;;
56255;SDS011;57229;51.432;-2.598;2023-08-17T13:55:44;10.07;;;5.70;;
56255;SDS011;57229;51.432;-2.598;2023-08-17T13:58:10;7.55;;;5.78;;
56255;SDS011;57229;51.432;-2.598;2023-08-17T14:00:36;8.20;;;6.15;;
56255;SDS011;57229;51.432;-2.598;2023-08-17T14:03:02;8.30;;;5.72;;
56255;SDS011;57229;51.432;-2.598;2023-08-17T14:05:28;7.05;;;5.70;;
56255;SDS011;57229;51.432;-2.598;2023-08-17T14:07:53;7.00;;;5.25;;
56255;SDS011;57229;51.432;-2.598;2023-08-17T14:10:19;9.90;;;5.68;;
56255;SDS011;57229;51.432;-2.598;2023-08-17T14:12:45;8.32;;;5.57;;
56255;SDS011;57229;51.432;-2.598;2023-08-17T14:15:11;6.10;;;5.60;;
56255;SDS011;57229;51.432;-2.598;2023-08-17T14:17:36;6.10;;;5.60;;
56255;SDS011;57229;51.432;-2.598;2023-08-17T14:20:02;10.43;;;5.45;;
56255;SDS011;57229;51.432;-2.598;2023-08-17T14:22:29;8.00;;;5.28;;
56255;SDS011;57229;51.432;-2.598;2023-08-17T14:24:57;7.53;;;5.47;;
56255;SDS011;57229;51.432;-2.598;2023-08-17T14:27:23;7.75;;;5.60;;